createdAt,value
2023-02-27T00:01:54.035Z,98668.50
2023-02-27T00:04:22.603Z,98668.50
2023-02-27T00:06:51.290Z,98663.13
2023-02-27T00:09:20.154Z,98677.38
2023-02-27T00:11:48.674Z,98679.22
2023-02-27T00:14:17.563Z,98682.91
2023-02-27T00:16:47.592Z,98689.97
2023-02-27T00:19:16.191Z,98684.59
2023-02-27T00:21:45.426Z,98688.28
2023-02-27T00:24:14.054Z,98681.09
2023-02-27T00:26:42.635Z,98691.81
2023-02-27T00:29:11.178Z,98681.09
2023-02-27T00:31:39.888Z,98693.63
2023-02-27T00:34:09.901Z,98685.59
2023-02-27T00:36:38.420Z,98681.25
2023-02-27T00:39:06.954Z,98683.91
2023-02-27T00:41:35.480Z,98683.09
2023-02-27T00:44:04.028Z,98686.59
2023-02-27T00:46:32.769Z,98681.25
2023-02-27T00:49:01.320Z,98684.94
2023-02-27T00:51:31.555Z,98690.13
2023-02-27T00:54:00.248Z,98683.09
2023-02-27T00:56:28.844Z,98687.63
2023-02-27T00:58:57.456Z,98686.75
2023-02-27T01:01:26.269Z,98684.06
2023-02-27T01:03:54.851Z,98684.06
2023-02-27T01:06:23.436Z,98684.06
2023-02-27T01:08:53.367Z,98689.63
2023-02-27T01:11:21.991Z,98685.09
2023-02-27T01:13:50.641Z,98685.91
2023-02-27T01:16:19.249Z,98685.91
2023-02-27T01:18:47.914Z,98681.56
2023-02-27T01:21:16.741Z,98678.88
2023-02-27T01:23:45.255Z,98684.25
2023-02-27T01:26:15.319Z,98688.59
2023-02-27T01:28:43.892Z,98693.97
2023-02-27T01:31:12.425Z,98692.31
2023-02-27T01:33:41.026Z,98695.00
2023-02-27T01:36:11.079Z,98703.03
2023-02-27T01:38:39.634Z,98697.69
2023-02-27T01:41:08.277Z,98710.09
2023-02-27T01:43:57.707Z,98716.47
2023-02-27T01:46:26.422Z,98715.63
2023-02-27T01:48:59.720Z,98718.31
2023-02-27T01:51:31.446Z,98714.75
2023-02-27T01:54:00.601Z,98715.78
2023-02-27T01:56:30.958Z,98719.31
2023-02-27T01:59:03.323Z,98723.00
2023-02-27T02:01:32.249Z,98730.88
2023-02-27T02:04:03.772Z,98723.00
2023-02-27T02:06:33.322Z,98728.19
2023-02-27T02:09:01.941Z,98728.19
2023-02-27T02:11:30.672Z,98730.22
2023-02-27T02:14:02.770Z,98730.22
2023-02-27T02:16:43.155Z,98742.81
2023-02-27T02:19:31.603Z,98741.09
2023-02-27T02:22:35.376Z,98746.31
2023-02-27T02:25:42.113Z,98743.66
2023-02-27T02:28:19.375Z,98750.88
2023-02-27T02:31:24.779Z,98747.31
2023-02-27T02:34:19.977Z,98753.69
2023-02-27T02:37:33.279Z,98754.53
2023-02-27T02:40:28.128Z,98757.22
2023-02-27T02:42:59.731Z,98756.38
2023-02-27T02:45:31.850Z,98764.28
2023-02-27T02:48:10.643Z,98780.53
2023-02-27T02:50:42.965Z,98774.34
2023-02-27T02:53:17.394Z,98772.50
2023-02-27T02:55:49.413Z,98782.22
2023-02-27T02:58:22.654Z,98776.84
2023-02-27T03:00:55.751Z,98770.63
2023-02-27T03:03:28.041Z,98769.81
2023-02-27T03:06:00.121Z,98764.44
2023-02-27T03:08:30.503Z,98762.75
2023-02-27T03:11:01.395Z,98768.97
2023-02-27T03:13:33.066Z,98763.59
2023-02-27T03:16:03.943Z,98762.75
2023-02-27T03:18:35.195Z,98765.44
2023-02-27T03:21:05.884Z,98765.44
2023-02-27T03:23:37.269Z,98762.75
2023-02-27T03:26:07.381Z,98758.22
2023-02-27T03:28:38.761Z,98761.75
2023-02-27T03:31:10.658Z,98766.28
2023-02-27T03:33:41.372Z,98767.28
2023-02-27T03:36:12.440Z,98762.75
2023-02-27T03:38:43.711Z,98772.63
2023-02-27T03:41:16.470Z,98775.31
2023-02-27T03:43:51.013Z,98778.00
2023-02-27T03:46:21.609Z,98782.41
2023-02-27T03:48:50.235Z,98785.09
2023-02-27T03:51:20.965Z,98776.19
2023-02-27T03:53:51.218Z,98781.56
2023-02-27T03:56:25.563Z,98779.84
2023-02-27T03:58:54.305Z,98793.28
2023-02-27T04:01:22.972Z,98786.94
2023-02-27T04:03:54.556Z,98783.38
2023-02-27T04:06:40.694Z,98787.91
2023-02-27T04:09:12.711Z,98790.59
2023-02-27T04:12:03.363Z,98792.44
2023-02-27T04:14:43.271Z,98798.66
2023-02-27T04:17:25.104Z,98796.16
2023-02-27T04:20:17.202Z,98802.34
2023-02-27T04:22:48.756Z,98814.75
2023-02-27T04:25:44.862Z,98815.78
2023-02-27T04:28:18.623Z,98819.28
2023-02-27T04:30:59.100Z,98816.75
2023-02-27T04:33:38.837Z,98819.28
2023-02-27T04:36:12.959Z,98819.44
2023-02-27T04:38:45.368Z,98825.66
2023-02-27T04:41:16.065Z,98833.72
2023-02-27T04:43:46.114Z,98822.13
2023-02-27T04:46:16.598Z,98825.81
2023-02-27T04:48:50.660Z,98823.13
2023-02-27T04:51:22.858Z,98826.66
2023-02-27T04:53:55.417Z,98831.03
2023-02-27T04:56:25.867Z,98830.16
2023-02-27T04:58:58.226Z,98831.88
2023-02-27T05:01:31.886Z,98832.84
2023-02-27T05:04:00.779Z,98832.03
2023-02-27T05:06:31.622Z,98826.66
2023-02-27T05:09:05.837Z,98835.53
2023-02-27T05:11:37.532Z,98831.19
2023-02-27T05:14:13.013Z,98839.25
2023-02-27T05:16:43.148Z,98844.59
2023-02-27T05:19:11.934Z,98840.25
2023-02-27T05:21:43.152Z,98848.13
2023-02-27T05:24:15.636Z,98848.13
2023-02-27T05:27:11.454Z,98852.66
2023-02-27T05:29:46.649Z,98858.03
2023-02-27T05:32:23.897Z,98855.34
2023-02-27T05:34:54.111Z,98849.13
2023-02-27T05:37:25.734Z,98860.72
2023-02-27T05:39:54.776Z,98853.69
2023-02-27T05:42:27.079Z,98863.41
2023-02-27T05:45:00.665Z,98857.19
2023-02-27T05:47:30.652Z,98868.78
2023-02-27T05:50:02.944Z,98866.09
2023-02-27T05:52:31.447Z,98871.69
2023-02-27T05:55:03.417Z,98871.19
2023-02-27T05:57:35.363Z,98871.34
2023-02-27T06:00:10.848Z,98881.22
2023-02-27T06:02:39.650Z,98883.06
2023-02-27T06:05:09.502Z,98885.94
2023-02-27T06:07:38.245Z,98881.06
2023-02-27T06:10:07.632Z,98889.59
2023-02-27T06:12:36.324Z,98892.47
2023-02-27T06:15:07.479Z,98893.63
2023-02-27T06:17:36.174Z,98891.63
2023-02-27T06:20:05.338Z,98895.50
2023-02-27T06:22:33.875Z,98896.31
2023-02-27T06:25:03.070Z,98891.97
2023-02-27T06:27:31.679Z,98896.69
2023-02-27T06:30:00.259Z,98896.81
2023-02-27T06:32:30.289Z,98892.78
2023-02-27T06:34:59.024Z,98896.31
2023-02-27T06:37:27.634Z,98907.19
2023-02-27T06:39:56.294Z,98908.03
2023-02-27T06:42:27.404Z,98904.34
2023-02-27T06:44:56.064Z,98910.72
2023-02-27T06:47:24.826Z,98913.38
2023-02-27T06:49:54.763Z,98910.88
2023-02-27T06:52:23.424Z,98909.03
2023-02-27T06:54:51.941Z,98910.88
2023-02-27T06:57:20.822Z,98910.03
2023-02-27T06:59:49.510Z,98914.53
2023-02-27T07:02:18.308Z,98916.41
2023-02-27T07:04:46.895Z,98915.41
2023-02-27T07:07:36.275Z,98921.75
2023-02-27T07:10:06.538Z,98918.25
2023-02-27T07:12:35.296Z,98918.25
2023-02-27T07:15:04.449Z,98930.84
2023-02-27T07:17:33.088Z,98926.47
2023-02-27T07:20:01.839Z,98921.94
2023-02-27T07:22:31.860Z,98921.09
2023-02-27T07:25:00.740Z,98929.16
2023-02-27T07:27:29.322Z,98938.88
2023-02-27T07:29:58.005Z,98934.53
2023-02-27T07:32:26.723Z,98934.53
2023-02-27T07:34:55.474Z,98937.22
2023-02-27T07:37:25.478Z,98938.03
2023-02-27T07:39:57.194Z,98938.88
2023-02-27T07:42:25.832Z,98939.91
2023-02-27T07:44:54.447Z,98939.91
2023-02-27T07:47:23.106Z,98946.94
2023-02-27T07:49:51.626Z,98940.72
2023-02-27T07:52:20.436Z,98949.63
2023-02-27T07:54:49.182Z,98949.63
2023-02-27T07:57:19.271Z,98947.94
2023-02-27T07:59:48.477Z,98959.53
2023-02-27T08:02:17.383Z,98960.34
2023-02-27T08:04:46.007Z,98955.00
2023-02-27T08:07:14.587Z,98951.47
2023-02-27T08:09:43.417Z,98954.16
2023-02-27T08:12:12.109Z,98960.34
2023-02-27T08:14:42.061Z,98962.03
2023-02-27T08:17:10.771Z,98971.09
2023-02-27T08:19:39.593Z,98980.00
2023-02-27T08:22:08.135Z,98976.47
2023-02-27T08:24:36.971Z,98967.41
2023-02-27T08:27:05.733Z,98982.34
2023-02-27T08:29:34.382Z,98978.84
2023-02-27T08:32:04.932Z,98988.88
2023-02-27T08:34:33.676Z,98995.09
2023-02-27T08:37:02.319Z,98991.56
2023-02-27T08:39:31.048Z,99003.31
2023-02-27T08:41:59.676Z,99007.66
2023-02-27T08:44:28.685Z,98999.63
2023-02-27T08:46:57.339Z,99005.81
2023-02-27T08:49:27.391Z,99010.34
2023-02-27T08:51:56.247Z,99008.50
2023-02-27T08:54:24.843Z,99009.50
2023-02-27T08:56:53.475Z,99007.66
2023-02-27T08:59:22.166Z,99003.31
2023-02-27T09:01:50.965Z,99008.69
2023-02-27T09:04:21.052Z,99014.03
2023-02-27T09:06:51.155Z,99016.56
2023-02-27T09:09:19.766Z,99017.44
2023-02-27T09:11:48.461Z,99020.25
2023-02-27T09:14:17.228Z,99024.63
2023-02-27T09:16:45.953Z,99027.28
2023-02-27T09:19:14.898Z,99020.78
2023-02-27T09:21:43.760Z,99033.91
2023-02-27T09:24:20.127Z,99030.53
2023-02-27T09:26:49.969Z,99030.69
2023-02-27T09:29:18.812Z,99027.28
2023-02-27T09:31:48.176Z,99026.47
2023-02-27T09:34:17.077Z,99029.97
2023-02-27T09:36:45.743Z,99022.94
2023-02-27T09:39:15.657Z,99030.16
2023-02-27T09:41:52.889Z,99028.47
2023-02-27T09:44:45.753Z,99036.34
2023-02-27T09:47:19.718Z,99037.38
2023-02-27T09:50:00.844Z,99039.22
2023-02-27T09:52:30.036Z,99042.56
2023-02-27T09:55:00.670Z,99035.34
2023-02-27T09:57:40.315Z,99038.91
2023-02-27T10:00:15.351Z,99033.53
2023-02-27T10:02:51.231Z,99035.22
2023-02-27T10:05:27.993Z,99033.34
2023-02-27T10:08:03.169Z,99036.22
2023-02-27T10:10:36.848Z,99041.59
2023-02-27T10:13:25.445Z,99038.91
2023-02-27T10:15:54.858Z,99039.88
2023-02-27T10:18:29.129Z,99042.94
2023-02-27T10:21:01.708Z,99038.91
2023-02-27T10:23:38.521Z,99036.22
2023-02-27T10:26:09.005Z,99044.41
2023-02-27T10:28:37.667Z,99043.56
2023-02-27T10:31:11.653Z,99048.94
2023-02-27T10:33:41.337Z,99048.78
2023-02-27T10:36:20.609Z,99042.56
2023-02-27T10:38:53.986Z,99042.56
2023-02-27T10:41:23.937Z,99041.59
2023-02-27T10:43:53.031Z,99042.75
2023-02-27T10:46:27.611Z,99038.22
2023-02-27T10:48:56.931Z,99030.28
2023-02-27T10:51:27.773Z,99035.53
2023-02-27T10:54:21.629Z,99031.16
2023-02-27T10:56:53.411Z,99032.84
2023-02-27T10:59:24.703Z,99030.16
2023-02-27T11:01:55.817Z,99031.81
2023-02-27T11:04:30.024Z,99032.84
2023-02-27T11:06:58.670Z,99042.56
2023-02-27T11:09:29.087Z,99036.22
2023-02-27T11:12:10.860Z,99043.41
2023-02-27T11:14:49.829Z,99042.56
2023-02-27T11:17:25.832Z,99046.25
2023-02-27T11:19:54.436Z,99045.25
2023-02-27T11:22:24.833Z,99045.25
2023-02-27T11:24:53.455Z,99035.53
2023-02-27T11:27:26.735Z,99043.56
2023-02-27T11:29:59.975Z,99040.06
2023-02-27T11:32:32.825Z,99049.94
2023-02-27T11:35:01.465Z,99040.06
2023-02-27T11:37:32.757Z,99051.63
2023-02-27T11:40:12.946Z,99048.78
2023-02-27T11:42:46.605Z,99047.09
2023-02-27T11:46:10.242Z,99049.94
2023-02-27T11:48:22.011Z,99048.09
2023-02-27T11:51:25.961Z,99043.72
2023-02-27T11:54:09.567Z,99041.72
2023-02-27T11:56:40.030Z,99043.56
2023-02-27T11:59:25.074Z,99051.63
2023-02-27T12:01:57.724Z,99048.09
2023-02-27T12:04:28.705Z,99055.31
2023-02-27T12:07:00.460Z,99046.25
2023-02-27T12:09:38.849Z,99047.28
2023-02-27T12:12:13.518Z,99044.28
2023-02-27T12:14:48.686Z,99045.94
2023-02-27T12:17:22.643Z,99046.41
2023-02-27T12:20:37.608Z,99057.84
2023-02-27T12:23:15.090Z,99054.31
2023-02-27T12:25:46.955Z,99061.66
2023-02-27T12:28:28.951Z,99058.84
2023-02-27T12:31:32.506Z,99061.66
2023-02-27T12:34:05.322Z,99056.31
2023-02-27T12:36:34.153Z,99056.16
2023-02-27T12:39:04.555Z,99054.63
2023-02-27T12:41:44.154Z,99058.97
2023-02-27T12:44:33.157Z,99064.34
2023-02-27T12:47:10.725Z,99073.25
2023-02-27T12:49:44.011Z,99080.47
2023-02-27T12:52:21.372Z,99081.28
2023-02-27T12:55:01.616Z,99071.44
2023-02-27T12:57:41.362Z,99074.13
2023-02-27T13:00:15.946Z,99084.69
2023-02-27T13:02:55.781Z,99070.25
2023-02-27T13:05:43.151Z,99078.63
2023-02-27T13:08:34.400Z,99084.16
2023-02-27T13:11:07.950Z,99087.81
2023-02-27T13:13:40.030Z,99078.94
2023-02-27T13:16:13.493Z,99072.69
2023-02-27T13:18:45.779Z,99075.38
2023-02-27T13:21:16.345Z,99080.63
2023-02-27T13:23:58.595Z,99079.75
2023-02-27T13:26:30.293Z,99086.09
2023-02-27T13:28:59.336Z,99081.75
2023-02-27T13:31:36.755Z,99087.94
2023-02-27T13:34:16.082Z,99087.13
2023-02-27T13:36:46.564Z,99080.75
2023-02-27T13:39:41.666Z,99078.19
2023-02-27T13:43:07.611Z,99079.91
2023-02-27T13:45:57.387Z,99094.31
2023-02-27T13:48:52.114Z,99081.88
2023-02-27T13:51:56.669Z,99087.13
2023-02-27T13:54:30.753Z,99096.00
2023-02-27T13:57:25.769Z,99087.25
2023-02-27T13:59:59.900Z,99092.63
2023-02-27T14:02:58.363Z,99095.31
2023-02-27T14:05:32.171Z,99095.16
2023-02-27T14:08:09.011Z,99098.84
2023-02-27T14:10:38.244Z,99099.66
2023-02-27T14:13:07.685Z,99096.16
2023-02-27T14:16:07.999Z,99101.38
2023-02-27T14:18:57.823Z,99098.84
2023-02-27T14:21:56.565Z,99107.72
2023-02-27T14:24:38.294Z,99109.56
2023-02-27T14:27:15.626Z,99109.56
2023-02-27T14:29:46.421Z,99111.28
2023-02-27T14:32:19.218Z,99113.09
2023-02-27T14:34:47.849Z,99118.63
2023-02-27T14:37:18.343Z,99118.47
2023-02-27T14:39:49.699Z,99119.47
2023-02-27T14:42:47.232Z,99118.47
2023-02-27T14:45:17.774Z,99129.06
2023-02-27T14:47:47.776Z,99128.22
2023-02-27T14:50:34.293Z,99139.94
2023-02-27T14:53:02.990Z,99131.03
2023-02-27T14:55:33.678Z,99139.25
2023-02-27T14:58:09.931Z,99138.25
2023-02-27T15:00:39.940Z,99137.41
2023-02-27T15:03:18.815Z,99145.47
2023-02-27T15:05:47.868Z,99144.63
2023-02-27T15:08:19.376Z,99147.16
2023-02-27T15:10:49.547Z,99147.16
2023-02-27T15:13:25.701Z,99143.63
2023-02-27T15:16:16.520Z,99152.50
2023-02-27T15:18:59.231Z,99157.03
2023-02-27T15:21:30.684Z,99159.72
2023-02-27T15:24:00.980Z,99157.88
2023-02-27T15:26:35.107Z,99152.69
2023-02-27T15:29:04.950Z,99165.09
2023-02-27T15:31:33.648Z,99165.09
2023-02-27T15:34:03.047Z,99164.25
2023-02-27T15:36:32.860Z,99164.25
2023-02-27T15:39:17.831Z,99161.56
2023-02-27T15:41:52.508Z,99171.47
2023-02-27T15:44:25.659Z,99173.28
2023-02-27T15:46:54.346Z,99172.44
2023-02-27T15:49:24.148Z,99171.47
2023-02-27T15:52:00.833Z,99170.31
2023-02-27T15:54:34.289Z,99177.50
2023-02-27T15:57:04.822Z,99181.06
2023-02-27T15:59:35.105Z,99187.84
2023-02-27T16:02:04.348Z,99192.91
2023-02-27T16:04:34.918Z,99190.91
2023-02-27T16:07:05.006Z,99193.91
2023-02-27T16:09:34.731Z,99203.63
2023-02-27T16:12:22.794Z,99191.53
2023-02-27T16:14:53.895Z,99202.25
2023-02-27T16:17:28.205Z,99206.78
2023-02-27T16:19:57.828Z,99212.16
2023-02-27T16:22:27.420Z,99209.47
2023-02-27T16:24:56.159Z,99209.47
2023-02-27T16:27:27.582Z,99207.63
2023-02-27T16:29:57.520Z,99210.31
2023-02-27T16:32:27.738Z,99208.47
2023-02-27T16:35:03.867Z,99213.00
2023-02-27T16:37:40.016Z,99222.72
2023-02-27T16:40:15.143Z,99221.06
2023-02-27T16:42:45.743Z,99223.75
2023-02-27T16:45:17.148Z,99223.75
2023-02-27T16:47:45.831Z,99227.41
2023-02-27T16:50:17.590Z,99232.78
2023-02-27T16:52:46.275Z,99231.78
2023-02-27T16:55:14.875Z,99244.38
2023-02-27T16:57:44.958Z,99245.22
2023-02-27T17:00:15.400Z,99245.22
2023-02-27T17:02:44.156Z,99245.91
2023-02-27T17:05:15.231Z,99255.13
2023-02-27T17:07:44.850Z,99254.38
2023-02-27T17:10:15.494Z,99249.16
2023-02-27T17:12:47.114Z,99256.22
2023-02-27T17:15:15.934Z,99256.22
2023-02-27T17:17:44.732Z,99256.22
2023-02-27T17:20:14.578Z,99256.09
2023-02-27T17:22:44.747Z,99258.78
2023-02-27T17:25:13.578Z,99265.97
2023-02-27T17:27:44.870Z,99273.03
2023-02-27T17:30:14.372Z,99269.50
2023-02-27T17:32:43.065Z,99266.69
2023-02-27T17:35:11.707Z,99272.06
2023-02-27T17:37:40.407Z,99273.75
2023-02-27T17:40:12.287Z,99271.06
2023-02-27T17:42:41.034Z,99272.91
2023-02-27T17:45:12.677Z,99274.75
2023-02-27T17:47:41.422Z,99283.63
2023-02-27T17:50:11.154Z,99278.41
2023-02-27T17:52:39.860Z,99285.47
2023-02-27T17:55:10.147Z,99279.38
2023-02-27T17:57:39.602Z,99286.47
2023-02-27T18:00:14.485Z,99288.31
2023-02-27T18:02:44.908Z,99285.63
2023-02-27T18:05:13.726Z,99287.44
2023-02-27T18:07:42.282Z,99285.63
2023-02-27T18:10:14.149Z,99286.47
2023-02-27T18:12:42.835Z,99294.50
2023-02-27T18:15:13.818Z,99302.00
2023-02-27T18:17:43.886Z,99305.66
2023-02-27T18:20:14.098Z,99309.66
2023-02-27T18:22:42.796Z,99305.97
2023-02-27T18:25:12.017Z,99324.91
2023-02-27T18:27:40.689Z,99318.41
2023-02-27T18:30:11.311Z,99326.59
2023-02-27T18:32:42.798Z,99322.06
2023-02-27T18:35:11.550Z,99330.28
2023-02-27T18:37:40.188Z,99327.69
2023-02-27T18:40:12.038Z,99329.88
2023-02-27T18:42:40.764Z,99329.34
2023-02-27T18:45:10.729Z,99333.28
2023-02-27T18:47:40.698Z,99337.00
2023-02-27T18:50:10.972Z,99343.50
2023-02-27T18:52:39.656Z,99334.72
2023-02-27T18:55:09.346Z,99337.66
2023-02-27T18:57:37.969Z,99334.41
2023-02-27T19:00:08.214Z,99340.38
2023-02-27T19:02:41.548Z,99338.97
2023-02-27T19:05:14.638Z,99352.84
2023-02-27T19:07:43.600Z,99351.69
2023-02-27T19:10:12.998Z,99350.03
2023-02-27T19:12:41.690Z,99348.31
2023-02-27T19:15:12.182Z,99360.75
2023-02-27T19:17:40.854Z,99354.56
2023-02-27T19:20:16.494Z,99359.06
2023-02-27T19:22:45.626Z,99359.91
2023-02-27T19:25:14.346Z,99362.75
2023-02-27T19:27:44.826Z,99361.91
2023-02-27T19:30:14.433Z,99371.81
2023-02-27T19:32:43.137Z,99369.13
2023-02-27T19:35:15.309Z,99366.13
2023-02-27T19:37:46.983Z,99373.47
2023-02-27T19:40:16.062Z,99377.00
2023-02-27T19:42:45.778Z,99373.63
2023-02-27T19:45:14.376Z,99368.25
2023-02-27T19:47:43.113Z,99379.84
2023-02-27T19:50:13.981Z,99379.84
2023-02-27T19:52:42.696Z,99382.53
2023-02-27T19:55:12.012Z,99380.00
2023-02-27T19:57:40.778Z,99377.31
2023-02-27T20:00:13.103Z,99388.88
2023-02-27T20:02:41.800Z,99391.88
2023-02-27T20:05:12.962Z,99386.50
2023-02-27T20:07:42.549Z,99392.56
2023-02-27T20:10:13.332Z,99395.97
2023-02-27T20:12:42.007Z,99392.41
2023-02-27T20:15:11.994Z,99390.59
2023-02-27T20:17:42.065Z,99389.59
2023-02-27T20:20:14.365Z,99393.13
2023-02-27T20:22:44.972Z,99395.78
2023-02-27T20:25:13.942Z,99406.69
2023-02-27T20:27:42.812Z,99399.63
2023-02-27T20:30:13.373Z,99396.63
2023-02-27T20:32:42.170Z,99409.38
2023-02-27T20:35:14.411Z,99406.00
2023-02-27T20:37:43.396Z,99406.28
2023-02-27T20:40:13.878Z,99402.75
2023-02-27T20:42:42.829Z,99409.94
2023-02-27T20:45:12.426Z,99402.88
2023-02-27T20:47:41.024Z,99412.75
2023-02-27T20:50:13.073Z,99417.28
2023-02-27T20:52:41.977Z,99416.41
2023-02-27T20:55:11.800Z,99428.03
2023-02-27T20:57:40.471Z,99423.63
2023-02-27T21:00:12.331Z,99419.25
2023-02-27T21:02:40.914Z,99414.59
2023-02-27T21:05:10.543Z,99415.44
2023-02-27T21:07:40.608Z,99418.72
2023-02-27T21:10:10.805Z,99409.09
2023-02-27T21:12:39.378Z,99410.91
2023-02-27T21:15:09.372Z,99412.63
2023-02-27T21:17:38.160Z,99415.31
2023-02-27T21:20:08.702Z,99410.91
2023-02-27T21:22:37.399Z,99414.59
2023-02-27T21:25:08.488Z,99409.22
2023-02-27T21:27:37.125Z,99409.22
2023-02-27T21:30:07.728Z,99408.22
2023-02-27T21:32:36.316Z,99411.06
2023-02-27T21:35:05.267Z,99408.38
2023-02-27T21:37:34.057Z,99409.22
2023-02-27T21:40:04.345Z,99415.56
2023-02-27T21:42:34.359Z,99419.97
2023-02-27T21:45:02.974Z,99419.09
2023-02-27T21:47:31.919Z,99419.09
2023-02-27T21:50:00.449Z,99419.97
2023-02-27T21:52:31.454Z,99417.28
2023-02-27T21:55:00.085Z,99430.72
2023-02-27T21:57:28.767Z,99422.53
2023-02-27T21:59:58.880Z,99419.84
2023-02-27T22:02:27.633Z,99421.66
2023-02-27T22:04:56.247Z,99423.63
2023-02-27T22:07:24.848Z,99423.63
2023-02-27T22:09:53.383Z,99425.47
2023-02-27T22:12:23.191Z,99424.63
2023-02-27T22:14:51.811Z,99421.09
2023-02-27T22:17:21.734Z,99415.75
2023-02-27T22:19:51.012Z,99420.94
2023-02-27T22:22:19.635Z,99419.84
2023-02-27T22:24:48.463Z,99418.97
2023-02-27T22:27:17.081Z,99425.22
2023-02-27T22:29:45.635Z,99427.03
2023-02-27T22:32:14.229Z,99420.81
2023-02-27T22:34:44.281Z,99431.56
2023-02-27T22:37:13.883Z,99433.25
2023-02-27T22:39:42.634Z,99429.72
2023-02-27T22:42:11.487Z,99433.41
2023-02-27T22:44:40.174Z,99435.94
2023-02-27T22:47:09.449Z,99432.38
2023-02-27T22:49:39.300Z,99435.06
2023-02-27T22:52:09.252Z,99430.72
2023-02-27T22:54:37.971Z,99432.53
2023-02-27T22:57:06.531Z,99435.06
2023-02-27T22:59:35.142Z,99444.97
2023-02-27T23:02:03.916Z,99446.81
2023-02-27T23:04:32.920Z,99430.72
2023-02-27T23:07:01.496Z,99440.56
2023-02-27T23:09:31.529Z,99438.75
2023-02-27T23:12:02.296Z,99437.06
2023-02-27T23:14:31.878Z,99439.75
2023-02-27T23:17:00.552Z,99437.06
2023-02-27T23:19:29.343Z,99438.75
2023-02-27T23:21:58.195Z,99444.97
2023-02-27T23:24:26.915Z,99438.75
2023-02-27T23:26:56.822Z,99441.44
2023-02-27T23:29:25.564Z,99441.44
2023-02-27T23:31:54.307Z,99437.91
2023-02-27T23:34:23.012Z,99451.31
2023-02-27T23:36:51.645Z,99435.22
2023-02-27T23:39:20.811Z,99446.81
2023-02-27T23:41:49.413Z,99452.19
2023-02-27T23:44:36.712Z,99442.41
2023-02-27T23:47:05.329Z,99447.78
2023-02-27T23:49:34.685Z,99452.31
2023-02-27T23:52:03.364Z,99446.94
2023-02-27T23:54:31.884Z,99450.63
2023-02-27T23:57:01.610Z,99447.78
2023-02-27T23:59:31.680Z,99445.09
